Terminal Aerodrome Forecast
Issued by NWS

Home | Current Version | Previous Version | Graphics & Text | Print | Product List | Glossary On
Versions: 1 2 3 4 5 6 7 8 9 10 11 12 13 14 15 16 17 18
000
FTUS43 KTOP 282300
TAFFOE
TAF
KFOE 282320Z 0100/0124 15006KT 6SM BR BKN020
     FM010600 19006KT 2SM -SN BKN020 OVC035
     FM011200 27006KT P6SM SCT015 BKN030
     FM011800 29006KT P6SM BKN035=

USA.gov is the U.S. government's official web portal to all federal, state and local government web resources and services.